Eko 4 — SVAR8 — position and weather

sailwx.info

Track history (hours):
 
Tides and Currents Weather Stations Pressure Air Temp Water Temp Dewpoint Dewpoint Depression Visibility Wind Speed Wind Dir Waves Ship Positions

Eko 4

Last reported at 2014-Sep-18 22:32 UTC. Time now 2014-Sep-19 17:57 UTC.
Position N 36°54' E 026°07'.

Length 88 m; draft 5.8 m.

Type: Ship (hazmat cat A). MMSI: 240912000.

Date/timePositionNaut miles runAvg speedWind from/ knotsBaromVisibWave heightAir tempDewpointWater temp
2014-Sep-18 22:32N 36°54' E 026°07'11 9.1
2014-Sep-18 21:17N 36°47' E 025°56'6 9.0
2014-Sep-18 20:33N 36°45' E 025°49'10 9.6
2014-Sep-18 19:33N 36°46' E 025°37'10 9.7
2014-Sep-18 18:34N 36°48' E 025°25'9 8.8
2014-Sep-18 17:33N 36°50' E 025°14'9 9.0
2014-Sep-18 16:33N 36°53' E 025°03'9 9.1
2014-Sep-18 15:32N 36°57' E 024°53'10 9.9
2014-Sep-18 14:33N 37°04' E 024°45'1010.0
2014-Sep-18 13:32N 37°12' E 024°36'8 7.8
2014-Sep-18 12:33N 37°15' E 024°28'9 8.9
2014-Sep-18 11:31N 37°19' E 024°17'30 9.0
2014-Sep-18 08:09N 37°37' E 023°46'6 9.8
2014-Sep-18 07:33N 37°42' E 023°41'1010.1
2014-Sep-18 06:33N 37°51' E 023°37'9 8.6
2014-Sep-18 05:33N 37°59' E 023°33'2 1.0
2014-Sep-18 03:11N 38°01' E 023°32'0 0.0
2014-Sep-18 02:11N 38°01' E 023°32'0 0.0
2014-Sep-18 00:17N 38°01' E 023°32'2 3.2
2014-Sep-17 23:33N 38°02' E 023°35'0 0.0
2014-Sep-17 13:05N 38°02' E 023°36'0 0.0
2014-Sep-17 08:25N 38°02' E 023°36'3 1.6
2014-Sep-17 06:30N 37°59' E 023°33'5 5.4
2014-Sep-17 05:33N 37°55' E 023°35'1 0.9
2014-Sep-17 04:29N 37°54' E 023°34'2 1.7
2014-Sep-17 03:33N 37°55' E 023°36'8 7.8
2014-Sep-17 02:33N 37°48' E 023°41'29 9.8
2014-Sep-16 23:33N 37°24' E 024°03'9 9.5
2014-Sep-16 22:33N 37°17' E 024°11'11 9.9
2014-Sep-16 21:29N 37°09' E 024°19'1010.1
2014-Sep-16 20:29N 37°04' E 024°30'1010.0
2014-Sep-16 19:32N 36°56' E 024°37'1010.6
2014-Sep-16 18:34N 36°47' E 024°43'1110.5
2014-Sep-16 17:32N 36°36' E 024°45'1010.3
2014-Sep-16 16:34N 36°27' E 024°48'1010.1
2014-Sep-16 15:34N 36°17' E 024°51'1010.2
2014-Sep-16 14:33N 36°07' E 024°53'10 9.8
2014-Sep-16 13:31N 35°57' E 024°56'28 0.9
2014-Sep-15 06:31N 35°39' E 025°23'9 9.8
2014-Sep-15 05:34N 35°46' E 025°31'11 9.9
2014-Sep-15 04:30N 35°53' E 025°41'1010.3
2014-Sep-15 03:33N 35°60' E 025°49'1110.4
2014-Sep-15 02:33N 36°07' E 025°59'1010.1
2014-Sep-15 01:33N 36°14' E 026°08'1010.0
2014-Sep-15 00:33N 36°20' E 026°17'1010.4
2014-Sep-14 23:33N 36°27' E 026°27'20 9.7
2014-Sep-14 21:30N 36°41' E 026°45'9 9.9
2014-Sep-14 20:33N 36°47' E 026°53'8 7.1
2014-Sep-14 19:28N 36°50' E 027°02'0 0.1
2014-Sep-14 18:16N 36°50' E 027°03'0 0.0
2014-Sep-14 17:28N 36°50' E 027°03'0 0.0
2014-Sep-14 16:28N 36°50' E 027°03'0 0.0
2014-Sep-14 15:28N 36°50' E 027°03'0 0.0
2014-Sep-14 14:22N 36°50' E 027°03'0 0.0
2014-Sep-14 13:28N 36°50' E 027°03'10 1.7
2014-Sep-14 07:23N 36°50' E 026°49'8 9.8
2014-Sep-14 06:33N 36°48' E 026°39'1010.0
2014-Sep-14 05:33N 36°47' E 026°27'10 9.9
2014-Sep-14 04:33N 36°46' E 026°15'10 9.7
2014-Sep-14 03:33N 36°44' E 026°03'1010.2
2014-Sep-14 02:32N 36°43' E 025°50'1010.4
2014-Sep-14 01:33N 36°45' E 025°38'39 9.8
2014-Sep-13 21:32N 36°59' E 024°51'1010.1
2014-Sep-13 20:32N 37°06' E 024°43'10 9.8
2014-Sep-13 19:32N 37°13' E 024°34'20 9.3
2014-Sep-13 17:24N 37°21' E 024°11'9 9.7
2014-Sep-13 16:29N 37°27' E 024°03'19 9.6
2014-Sep-13 14:31N 37°39' E 023°44'9 9.6
2014-Sep-13 13:33N 37°47' E 023°38'10 9.7
2014-Sep-13 12:33N 37°56' E 023°36'5 0.4
2014-Sep-12 23:18N 38°01' E 023°34'6 7.8
2014-Sep-12 22:33N 37°60' E 023°26'7 7.1
2014-Sep-12 21:29N 37°53' E 023°22'1010.7
2014-Sep-12 20:33N 37°50' E 023°34'9 9.1
2014-Sep-12 19:33N 37°44' E 023°43'5810.8
2014-Sep-12 14:08N 36°50' E 024°09'610.5
2014-Sep-12 13:31N 36°44' E 024°12'1010.5
2014-Sep-12 12:32N 36°34' E 024°16'1010.6
2014-Sep-12 11:33N 36°25' E 024°23'1010.2
2014-Sep-12 10:33N 36°17' E 024°30'1010.1
2014-Sep-12 09:33N 36°08' E 024°36'1010.0
2014-Sep-12 08:31N 35°59' E 024°42'42 4.2
2014-Sep-11 22:28N 35°21' E 025°03'0 0.0
2014-Sep-11 19:16N 35°21' E 025°03'38 0.9
2014-Sep-10 02:34N 35°56' E 024°44'1110.8
2014-Sep-10 01:32N 36°05' E 024°37'1010.5
2014-Sep-10 00:33N 36°15' E 024°31'1010.2
2014-Sep-09 23:33N 36°23' E 024°25'1010.1
2014-Sep-09 22:33N 36°32' E 024°18'1110.0
2014-Sep-09 21:29N 36°42' E 024°13'1010.4
2014-Sep-09 20:33N 36°51' E 024°08'5410.1
2014-Sep-09 15:10N 37°41' E 023°42'610.0
2014-Sep-09 14:33N 37°47' E 023°38'10 9.7
2014-Sep-09 13:33N 37°56' E 023°36'  
Track history (hours):
 
Tides and Currents Weather Stations Pressure Air Temp Water Temp Dewpoint Dewpoint Depression Visibility Wind Speed Wind Dir Waves Ship Positions

Eko 4

Last reported at 2014-Sep-18 22:32 UTC. Time now 2014-Sep-19 17:57 UTC.
Position N 36°54' E 026°07'.

Length 88 m; draft 5.8 m.

Type: Ship (hazmat cat A). MMSI: 240912000.

Date/timePositionNaut miles runAvg speedWind from/ knotsBaromVisibWave heightAir tempDewpointWater temp
2014-Sep-18 22:32N 36°54' E 026°07'11 9.1
2014-Sep-18 21:17N 36°47' E 025°56'6 9.0
2014-Sep-18 20:33N 36°45' E 025°49'10 9.6
2014-Sep-18 19:33N 36°46' E 025°37'10 9.7
2014-Sep-18 18:34N 36°48' E 025°25'9 8.8
2014-Sep-18 17:33N 36°50' E 025°14'9 9.0
2014-Sep-18 16:33N 36°53' E 025°03'9 9.1
2014-Sep-18 15:32N 36°57' E 024°53'10 9.9
2014-Sep-18 14:33N 37°04' E 024°45'1010.0
2014-Sep-18 13:32N 37°12' E 024°36'8 7.8
2014-Sep-18 12:33N 37°15' E 024°28'9 8.9
2014-Sep-18 11:31N 37°19' E 024°17'30 9.0
2014-Sep-18 08:09N 37°37' E 023°46'6 9.8
2014-Sep-18 07:33N 37°42' E 023°41'1010.1
2014-Sep-18 06:33N 37°51' E 023°37'9 8.6
2014-Sep-18 05:33N 37°59' E 023°33'2 1.0
2014-Sep-18 03:11N 38°01' E 023°32'0 0.0
2014-Sep-18 02:11N 38°01' E 023°32'0 0.0
2014-Sep-18 00:17N 38°01' E 023°32'2 3.2
2014-Sep-17 23:33N 38°02' E 023°35'0 0.0
2014-Sep-17 13:05N 38°02' E 023°36'0 0.0
2014-Sep-17 08:25N 38°02' E 023°36'3 1.6
2014-Sep-17 06:30N 37°59' E 023°33'5 5.4
2014-Sep-17 05:33N 37°55' E 023°35'1 0.9
2014-Sep-17 04:29N 37°54' E 023°34'2 1.7
2014-Sep-17 03:33N 37°55' E 023°36'8 7.8
2014-Sep-17 02:33N 37°48' E 023°41'29 9.8
2014-Sep-16 23:33N 37°24' E 024°03'9 9.5
2014-Sep-16 22:33N 37°17' E 024°11'11 9.9
2014-Sep-16 21:29N 37°09' E 024°19'1010.1
2014-Sep-16 20:29N 37°04' E 024°30'1010.0
2014-Sep-16 19:32N 36°56' E 024°37'1010.6
2014-Sep-16 18:34N 36°47' E 024°43'1110.5
2014-Sep-16 17:32N 36°36' E 024°45'1010.3
2014-Sep-16 16:34N 36°27' E 024°48'1010.1
2014-Sep-16 15:34N 36°17' E 024°51'1010.2
2014-Sep-16 14:33N 36°07' E 024°53'10 9.8
2014-Sep-16 13:31N 35°57' E 024°56'28 0.9
2014-Sep-15 06:31N 35°39' E 025°23'9 9.8
2014-Sep-15 05:34N 35°46' E 025°31'11 9.9
2014-Sep-15 04:30N 35°53' E 025°41'1010.3
2014-Sep-15 03:33N 35°60' E 025°49'1110.4
2014-Sep-15 02:33N 36°07' E 025°59'1010.1
2014-Sep-15 01:33N 36°14' E 026°08'1010.0
2014-Sep-15 00:33N 36°20' E 026°17'1010.4
2014-Sep-14 23:33N 36°27' E 026°27'20 9.7
2014-Sep-14 21:30N 36°41' E 026°45'9 9.9
2014-Sep-14 20:33N 36°47' E 026°53'8 7.1
2014-Sep-14 19:28N 36°50' E 027°02'0 0.1
2014-Sep-14 18:16N 36°50' E 027°03'0 0.0
2014-Sep-14 17:28N 36°50' E 027°03'0 0.0
2014-Sep-14 16:28N 36°50' E 027°03'0 0.0
2014-Sep-14 15:28N 36°50' E 027°03'0 0.0
2014-Sep-14 14:22N 36°50' E 027°03'0 0.0
2014-Sep-14 13:28N 36°50' E 027°03'10 1.7
2014-Sep-14 07:23N 36°50' E 026°49'8 9.8
2014-Sep-14 06:33N 36°48' E 026°39'1010.0
2014-Sep-14 05:33N 36°47' E 026°27'10 9.9
2014-Sep-14 04:33N 36°46' E 026°15'10 9.7
2014-Sep-14 03:33N 36°44' E 026°03'1010.2
2014-Sep-14 02:32N 36°43' E 025°50'1010.4
2014-Sep-14 01:33N 36°45' E 025°38'39 9.8
2014-Sep-13 21:32N 36°59' E 024°51'1010.1
2014-Sep-13 20:32N 37°06' E 024°43'10 9.8
2014-Sep-13 19:32N 37°13' E 024°34'20 9.3
2014-Sep-13 17:24N 37°21' E 024°11'9 9.7
2014-Sep-13 16:29N 37°27' E 024°03'19 9.6
2014-Sep-13 14:31N 37°39' E 023°44'9 9.6
2014-Sep-13 13:33N 37°47' E 023°38'10 9.7
2014-Sep-13 12:33N 37°56' E 023°36'5 0.4
2014-Sep-12 23:18N 38°01' E 023°34'6 7.8
2014-Sep-12 22:33N 37°60' E 023°26'7 7.1
2014-Sep-12 21:29N 37°53' E 023°22'1010.7
2014-Sep-12 20:33N 37°50' E 023°34'9 9.1
2014-Sep-12 19:33N 37°44' E 023°43'5810.8
2014-Sep-12 14:08N 36°50' E 024°09'610.5
2014-Sep-12 13:31N 36°44' E 024°12'1010.5
2014-Sep-12 12:32N 36°34' E 024°16'1010.6
2014-Sep-12 11:33N 36°25' E 024°23'1010.2
2014-Sep-12 10:33N 36°17' E 024°30'1010.1
2014-Sep-12 09:33N 36°08' E 024°36'1010.0
2014-Sep-12 08:31N 35°59' E 024°42'42 4.2
2014-Sep-11 22:28N 35°21' E 025°03'0 0.0
2014-Sep-11 19:16N 35°21' E 025°03'38 0.9
2014-Sep-10 02:34N 35°56' E 024°44'1110.8
2014-Sep-10 01:32N 36°05' E 024°37'1010.5
2014-Sep-10 00:33N 36°15' E 024°31'1010.2
2014-Sep-09 23:33N 36°23' E 024°25'1010.1
2014-Sep-09 22:33N 36°32' E 024°18'1110.0
2014-Sep-09 21:29N 36°42' E 024°13'1010.4
2014-Sep-09 20:33N 36°51' E 024°08'5410.1
2014-Sep-09 15:10N 37°41' E 023°42'610.0
2014-Sep-09 14:33N 37°47' E 023°38'10 9.7
2014-Sep-09 13:33N 37°56' E 023°36'  

Dump ship's entire track history